createdAt,value
2023-03-23T16:01:40.526Z,18.47
2023-03-23T16:06:44.142Z,18.66
2023-03-23T16:11:46.431Z,18.69
2023-03-23T16:16:53.051Z,18.75
2023-03-23T16:21:55.401Z,18.72
2023-03-23T16:26:57.664Z,18.57
2023-03-23T16:31:59.760Z,18.56
2023-03-23T16:37:02.727Z,18.49
2023-03-23T16:42:04.862Z,18.58
2023-03-23T16:47:06.995Z,18.62
2023-03-23T16:52:09.327Z,18.38
2023-03-23T16:57:12.263Z,18.62
2023-03-23T17:02:14.506Z,18.19
2023-03-23T17:07:16.768Z,18.27
2023-03-23T17:12:19.044Z,18.17
2023-03-23T17:17:21.179Z,18.06
2023-03-23T17:22:23.954Z,18.14
2023-03-23T17:27:26.673Z,18.14
2023-03-23T17:32:29.163Z,18.06
2023-03-23T17:37:31.891Z,18.27
2023-03-23T17:42:34.517Z,18.05
2023-03-23T17:47:37.181Z,18.10
2023-03-23T17:52:39.866Z,18.39
2023-03-23T17:57:43.378Z,18.17
2023-03-23T18:02:47.053Z,17.79
2023-03-23T18:07:49.418Z,18.19
2023-03-23T18:12:51.675Z,17.77
2023-03-23T18:17:53.896Z,17.93
2023-03-23T18:22:57.789Z,17.74
2023-03-23T18:28:05.325Z,17.93
2023-03-23T18:33:09.319Z,17.48
2023-03-23T18:38:12.993Z,17.28
2023-03-23T18:43:15.232Z,17.60
2023-03-23T18:48:17.509Z,17.55
2023-03-23T18:53:21.207Z,18.15
2023-03-23T18:58:23.444Z,18.07
2023-03-23T19:03:26.411Z,17.56
2023-03-23T19:08:30.225Z,18.01
2023-03-23T19:13:37.560Z,17.62
2023-03-23T19:18:41.217Z,18.02
2023-03-23T19:23:43.677Z,17.43
2023-03-23T19:29:21.481Z,17.80
2023-03-23T19:34:08.747Z,18.44
2023-03-23T19:39:11.380Z,18.18
2023-03-23T19:44:13.828Z,18.27
2023-03-23T19:49:16.338Z,18.32
2023-03-23T19:54:19.110Z,18.39
2023-03-23T19:59:21.225Z,18.53
2023-03-23T20:04:24.307Z,18.62
2023-03-23T20:09:27.427Z,18.59
2023-03-23T20:14:30.337Z,18.44
2023-03-23T20:19:32.607Z,18.41
2023-03-23T20:24:34.904Z,18.55
2023-03-23T20:29:37.071Z,18.41
2023-03-23T20:34:39.269Z,18.36
2023-03-23T20:39:42.411Z,18.32
2023-03-23T20:44:44.812Z,18.34
2023-03-23T20:49:53.067Z,18.41
2023-03-23T20:54:56.487Z,18.77
2023-03-23T20:59:59.112Z,18.80
2023-03-23T21:05:04.919Z,18.84
2023-03-23T21:10:07.371Z,18.58
2023-03-23T21:15:10.202Z,18.69
2023-03-23T21:20:12.766Z,18.66
2023-03-23T21:25:15.343Z,18.97
2023-03-23T21:30:20.714Z,18.99
2023-03-23T21:35:23.168Z,18.97
2023-03-23T21:40:25.271Z,18.70
2023-03-23T21:45:29.086Z,18.97
2023-03-23T21:50:35.637Z,18.94
2023-03-23T21:55:37.940Z,19.03
2023-03-23T22:00:41.466Z,19.21
2023-03-23T22:05:43.764Z,19.36
2023-03-23T22:11:00.390Z,19.36
2023-03-23T22:16:07.980Z,19.52
2023-03-23T22:21:10.807Z,19.45
2023-03-23T22:26:16.708Z,19.42
2023-03-23T22:31:27.497Z,19.64
2023-03-23T22:36:33.154Z,19.40
2023-03-23T22:41:39.821Z,19.48
2023-03-23T22:46:42.770Z,18.39
2023-03-23T22:51:45.634Z,18.56
2023-03-23T22:56:48.067Z,18.15
2023-03-23T23:01:50.285Z,18.48
2023-03-23T23:07:00.385Z,18.99
2023-03-23T23:12:10.574Z,19.05
2023-03-23T23:17:12.699Z,19.15
2023-03-23T23:22:19.261Z,19.08
2023-03-23T23:27:22.030Z,19.02
2023-03-23T23:32:25.330Z,18.90
2023-03-23T23:37:27.922Z,18.73
2023-03-23T23:42:30.139Z,18.73
2023-03-23T23:47:32.470Z,19.12
2023-03-23T23:52:36.781Z,18.82
2023-03-23T23:57:39.423Z,19.15
